createdAt,value
2022-10-02T00:00:52.334Z,10.75
2022-10-02T00:01:52.347Z,10.74
2022-10-02T00:02:52.304Z,10.72
2022-10-02T00:03:52.345Z,10.75
2022-10-02T00:04:52.302Z,10.74
2022-10-02T00:05:52.285Z,10.74
2022-10-02T00:06:52.255Z,10.74
2022-10-02T00:07:52.224Z,10.74
2022-10-02T00:08:52.223Z,10.75
2022-10-02T00:09:52.254Z,10.74
2022-10-02T00:10:52.193Z,10.74
2022-10-02T00:11:52.196Z,10.75
2022-10-02T00:12:52.181Z,10.74
2022-10-02T00:13:52.142Z,10.75
2022-10-02T00:14:52.145Z,10.74
2022-10-02T00:15:52.122Z,10.74
2022-10-02T00:16:52.161Z,10.74
2022-10-02T00:17:52.105Z,10.75
2022-10-02T00:18:52.082Z,10.75
2022-10-02T00:19:52.112Z,10.75
2022-10-02T00:20:52.054Z,10.75
2022-10-02T00:21:52.049Z,10.74
2022-10-02T00:22:52.042Z,10.75
2022-10-02T00:23:52.013Z,10.74
2022-10-02T00:24:52.022Z,10.72
2022-10-02T00:25:51.990Z,10.72
2022-10-02T00:26:51.984Z,10.72
2022-10-02T00:27:52.023Z,10.75
2022-10-02T00:28:51.952Z,10.74
2022-10-02T00:29:51.947Z,10.72
2022-10-02T00:30:51.959Z,10.71
2022-10-02T00:31:51.958Z,10.72
2022-10-02T00:32:51.911Z,10.74
2022-10-02T00:33:51.897Z,10.72
2022-10-02T00:34:51.887Z,10.74
2022-10-02T00:35:51.880Z,10.69
2022-10-02T00:36:51.851Z,10.72
2022-10-02T00:37:51.831Z,10.74
2022-10-02T00:38:51.838Z,10.74
2022-10-02T00:39:51.831Z,10.74
2022-10-02T00:40:51.817Z,10.75
2022-10-02T00:41:51.780Z,10.75
2022-10-02T00:42:51.773Z,10.76
2022-10-02T00:43:51.770Z,10.76
2022-10-02T00:44:51.751Z,10.76
2022-10-02T00:45:51.783Z,10.76
2022-10-02T00:46:51.738Z,10.78
2022-10-02T00:47:51.720Z,10.76
2022-10-02T00:48:51.743Z,10.78
2022-10-02T00:49:51.718Z,10.78
2022-10-02T00:50:51.709Z,10.81
2022-10-02T00:51:51.671Z,10.81
2022-10-02T00:52:51.688Z,10.82
2022-10-02T00:53:51.688Z,10.82
2022-10-02T00:54:51.640Z,10.84
2022-10-02T00:55:51.647Z,10.82
2022-10-02T00:56:51.602Z,10.84
2022-10-02T00:57:51.609Z,10.82
2022-10-02T00:58:51.568Z,10.84
2022-10-02T00:59:51.578Z,10.87
2022-10-02T01:00:51.590Z,10.87
2022-10-02T01:01:51.603Z,10.86
2022-10-02T01:02:51.550Z,10.87
2022-10-02T01:03:51.506Z,10.87
2022-10-02T01:04:51.497Z,10.89
2022-10-02T01:05:51.478Z,10.89
2022-10-02T01:06:51.457Z,10.89
2022-10-02T01:07:51.460Z,10.89
2022-10-02T01:08:51.449Z,10.90
2022-10-02T01:09:51.447Z,10.89
2022-10-02T01:10:51.436Z,10.89
2022-10-02T01:11:51.394Z,10.90
2022-10-02T01:12:51.386Z,10.90
2022-10-02T01:13:51.370Z,10.92
2022-10-02T01:14:51.363Z,10.92
2022-10-02T01:15:51.337Z,10.92
2022-10-02T01:16:51.354Z,10.92
2022-10-02T01:17:51.328Z,10.92
2022-10-02T01:18:51.296Z,10.92
2022-10-02T01:19:51.300Z,10.92
2022-10-02T01:20:51.297Z,10.93
2022-10-02T01:21:51.296Z,10.92
2022-10-02T01:22:51.257Z,10.92
2022-10-02T01:23:51.244Z,10.92
2022-10-02T01:24:51.245Z,10.94
2022-10-02T01:25:51.240Z,10.93
2022-10-02T01:26:51.206Z,10.94
2022-10-02T01:27:51.240Z,10.93
2022-10-02T01:28:51.175Z,10.93
2022-10-02T01:29:51.165Z,10.94
2022-10-02T01:30:51.146Z,10.96
2022-10-02T01:31:51.212Z,10.96
2022-10-02T01:32:51.125Z,10.96
2022-10-02T01:33:51.104Z,10.96
2022-10-02T01:34:51.115Z,10.96
2022-10-02T01:35:51.075Z,10.96
2022-10-02T01:36:51.073Z,10.97
2022-10-02T01:37:51.054Z,10.97
2022-10-02T01:38:51.045Z,10.97
2022-10-02T01:39:51.053Z,10.99
2022-10-02T01:40:51.023Z,10.99
2022-10-02T01:41:51.003Z,10.97
2022-10-02T01:42:50.992Z,10.99
2022-10-02T01:43:50.974Z,10.97
2022-10-02T01:44:50.963Z,10.97
2022-10-02T01:45:51.007Z,10.97
2022-10-02T01:46:50.933Z,10.97
2022-10-02T01:47:50.923Z,10.99
2022-10-02T01:48:50.912Z,10.99
2022-10-02T01:49:50.893Z,10.99
2022-10-02T01:50:50.893Z,10.99
2022-10-02T01:51:50.864Z,10.97
2022-10-02T01:52:50.865Z,10.97
2022-10-02T01:53:50.852Z,10.97
2022-10-02T01:54:50.832Z,10.99
2022-10-02T01:55:50.822Z,10.96
2022-10-02T01:56:50.804Z,10.96
2022-10-02T01:57:50.791Z,10.97
2022-10-02T01:58:50.778Z,10.94
2022-10-02T01:59:50.761Z,10.93
2022-10-02T02:00:50.856Z,10.93
2022-10-02T02:01:50.746Z,10.93
2022-10-02T02:02:50.732Z,10.93
2022-10-02T02:03:50.708Z,10.90
2022-10-02T02:04:50.692Z,10.90
2022-10-02T02:05:50.693Z,10.90
2022-10-02T02:06:50.673Z,10.89
2022-10-02T02:07:50.652Z,10.87
2022-10-02T02:08:50.661Z,10.90
2022-10-02T02:09:50.630Z,10.86
2022-10-02T02:10:50.649Z,10.82
2022-10-02T02:11:50.602Z,10.86
2022-10-02T02:12:50.600Z,10.82
2022-10-02T02:13:50.580Z,10.81
2022-10-02T02:14:50.569Z,10.82
2022-10-02T02:15:50.579Z,10.79
2022-10-02T02:16:50.588Z,10.79
2022-10-02T02:17:50.530Z,10.75
2022-10-02T02:18:50.520Z,10.78
2022-10-02T02:19:50.498Z,10.76
2022-10-02T02:20:50.509Z,10.72
2022-10-02T02:21:50.488Z,10.75
2022-10-02T02:22:50.470Z,10.72
2022-10-02T02:23:50.450Z,10.69
2022-10-02T02:24:50.440Z,10.68
2022-10-02T02:25:50.441Z,10.71
2022-10-02T02:26:50.412Z,10.68
2022-10-02T02:27:50.432Z,10.64
2022-10-02T02:28:50.389Z,10.64
2022-10-02T02:29:50.370Z,10.63
2022-10-02T02:30:50.379Z,10.61
2022-10-02T02:31:50.413Z,10.60
2022-10-02T02:32:50.338Z,10.57
2022-10-02T02:33:50.327Z,10.59
2022-10-02T02:34:50.318Z,10.56
2022-10-02T02:35:50.311Z,10.56
2022-10-02T02:36:50.290Z,10.53
2022-10-02T02:37:50.281Z,10.54
2022-10-02T02:38:50.257Z,10.51
2022-10-02T02:39:50.258Z,10.49
2022-10-02T02:40:50.240Z,10.49
2022-10-02T02:41:50.236Z,10.49
2022-10-02T02:42:50.197Z,10.48
2022-10-02T02:43:50.211Z,10.48
2022-10-02T02:44:50.178Z,10.46
2022-10-02T02:45:50.238Z,10.46
2022-10-02T02:46:50.149Z,10.42
2022-10-02T02:47:50.136Z,10.42
2022-10-02T02:48:50.126Z,10.42
2022-10-02T02:49:50.114Z,10.41
2022-10-02T02:50:50.116Z,10.41
2022-10-02T02:51:50.087Z,10.38
2022-10-02T02:52:50.089Z,10.40
2022-10-02T02:53:50.073Z,10.40
2022-10-02T02:54:50.045Z,10.38
2022-10-02T02:55:50.056Z,10.37
2022-10-02T02:56:50.015Z,10.35
2022-10-02T02:57:50.014Z,10.37
2022-10-02T02:58:49.996Z,10.35
2022-10-02T02:59:49.985Z,10.34
2022-10-02T03:00:50.054Z,10.33
2022-10-02T03:01:49.981Z,10.33
2022-10-02T03:02:49.946Z,10.31
2022-10-02T03:03:49.947Z,10.31
2022-10-02T03:04:49.913Z,10.31
2022-10-02T03:05:49.916Z,10.30
2022-10-02T03:06:49.884Z,10.30
2022-10-02T03:07:49.884Z,10.28
2022-10-02T03:08:49.866Z,10.30
2022-10-02T03:09:49.855Z,10.28
2022-10-02T03:10:49.843Z,10.30
2022-10-02T03:11:49.824Z,10.28
2022-10-02T03:12:49.812Z,10.28
2022-10-02T03:13:49.803Z,10.28
2022-10-02T03:14:49.798Z,10.30
2022-10-02T03:15:49.811Z,10.28
2022-10-02T03:16:49.763Z,10.31
2022-10-02T03:17:49.744Z,10.30
2022-10-02T03:18:49.733Z,10.26
2022-10-02T03:19:49.726Z,10.30
2022-10-02T03:20:49.734Z,10.28
2022-10-02T03:21:49.723Z,10.26
2022-10-02T03:22:49.675Z,10.26
2022-10-02T03:23:49.683Z,10.30
2022-10-02T03:24:49.643Z,10.26
2022-10-02T03:25:49.674Z,10.25
2022-10-02T03:26:49.622Z,10.26
2022-10-02T03:27:49.701Z,10.26
2022-10-02T03:28:57.296Z,10.26
2022-10-02T03:29:50.589Z,10.28
2022-10-02T03:30:49.588Z,10.26
2022-10-02T03:31:49.629Z,10.28
2022-10-02T03:32:49.548Z,10.28
2022-10-02T03:33:49.523Z,10.28
2022-10-02T03:34:49.514Z,10.30
2022-10-02T03:35:49.513Z,10.26
2022-10-02T03:36:49.482Z,10.31
2022-10-02T03:37:49.476Z,10.26
2022-10-02T03:39:00.783Z,10.30
2022-10-02T03:39:50.450Z,10.28
2022-10-02T03:40:49.463Z,10.30
2022-10-02T03:41:49.420Z,10.30
2022-10-02T03:42:49.408Z,10.30
2022-10-02T03:43:49.392Z,10.31
2022-10-02T03:44:49.380Z,10.33
2022-10-02T03:45:51.935Z,10.33
2022-10-02T03:46:49.417Z,10.33
2022-10-02T03:47:49.348Z,10.34
2022-10-02T03:48:49.330Z,10.35
2022-10-02T03:49:49.320Z,10.33
2022-10-02T03:50:49.313Z,10.35
2022-10-02T03:51:49.293Z,10.34
2022-10-02T03:52:49.269Z,10.34
2022-10-02T03:53:49.266Z,10.35
2022-10-02T03:54:49.248Z,10.35
2022-10-02T03:55:49.249Z,10.35
2022-10-02T03:56:49.221Z,10.35
2022-10-02T03:57:49.218Z,10.35
2022-10-02T03:58:49.196Z,10.37
2022-10-02T03:59:49.183Z,10.37
2022-10-02T04:00:49.182Z,10.34
2022-10-02T04:01:49.463Z,10.35
2022-10-02T04:02:49.143Z,10.37
2022-10-02T04:03:49.199Z,10.37
2022-10-02T04:04:49.116Z,10.37
2022-10-02T04:05:49.118Z,10.37
2022-10-02T04:06:49.093Z,10.37
2022-10-02T04:07:52.632Z,10.37
2022-10-02T04:08:49.058Z,10.38
2022-10-02T04:09:49.046Z,10.37
2022-10-02T04:10:49.047Z,10.38
2022-10-02T04:11:49.028Z,10.37
2022-10-02T04:12:49.025Z,10.38
2022-10-02T04:13:48.990Z,10.38
2022-10-02T04:14:48.989Z,10.40
2022-10-02T04:15:49.024Z,10.40
2022-10-02T04:16:48.957Z,10.38
2022-10-02T04:17:48.947Z,10.40
2022-10-02T04:18:48.925Z,10.40
2022-10-02T04:19:48.928Z,10.41
2022-10-02T04:20:48.907Z,10.42
2022-10-02T04:21:48.905Z,10.44
2022-10-02T04:22:48.887Z,10.44
2022-10-02T04:23:48.865Z,10.44
2022-10-02T04:24:48.847Z,10.46
2022-10-02T04:25:48.857Z,10.48
2022-10-02T04:26:48.815Z,10.48
2022-10-02T04:27:48.866Z,10.48
2022-10-02T04:28:48.794Z,10.49
2022-10-02T04:29:48.795Z,10.53
2022-10-02T04:30:48.783Z,10.51
2022-10-02T04:31:48.907Z,10.53
2022-10-02T04:32:48.745Z,10.53
2022-10-02T04:33:48.735Z,10.54
2022-10-02T04:34:48.716Z,10.56
2022-10-02T04:35:48.724Z,10.54
2022-10-02T04:36:48.698Z,10.57
2022-10-02T04:37:48.681Z,10.59
2022-10-02T04:38:48.668Z,10.59
2022-10-02T04:39:48.655Z,10.59
2022-10-02T04:40:48.655Z,10.60
2022-10-02T04:41:48.652Z,10.59
2022-10-02T04:42:48.643Z,10.60
2022-10-02T04:43:48.604Z,10.61
2022-10-02T04:44:48.594Z,10.63
2022-10-02T04:45:48.636Z,10.63
2022-10-02T04:46:48.572Z,10.67
2022-10-02T04:47:48.563Z,10.67
2022-10-02T04:48:48.543Z,10.67
2022-10-02T04:49:48.532Z,10.67
2022-10-02T04:50:48.523Z,10.68
2022-10-02T04:51:48.520Z,10.68
2022-10-02T04:52:48.495Z,10.68
2022-10-02T04:53:48.474Z,10.71
2022-10-02T04:54:48.453Z,10.71
2022-10-02T04:55:48.468Z,10.72
2022-10-02T04:56:48.434Z,10.72
2022-10-02T04:57:48.427Z,10.72
2022-10-02T04:58:48.404Z,10.72
2022-10-02T04:59:48.402Z,10.74
2022-10-02T05:00:48.429Z,10.75
2022-10-02T05:01:48.425Z,10.75
2022-10-02T05:02:48.364Z,10.78
2022-10-02T05:03:48.346Z,10.76
2022-10-02T05:04:48.321Z,10.76
2022-10-02T05:05:48.331Z,10.78
2022-10-02T05:06:48.302Z,10.78
2022-10-02T05:07:48.292Z,10.79
2022-10-02T05:08:48.271Z,10.78
2022-10-02T05:09:48.271Z,10.81
2022-10-02T05:10:48.263Z,10.81
2022-10-02T05:11:48.241Z,10.81
2022-10-02T05:12:48.272Z,10.81
2022-10-02T05:13:48.225Z,10.81
2022-10-02T05:14:48.191Z,10.82
2022-10-02T05:15:48.257Z,10.81
2022-10-02T05:16:48.170Z,10.84
2022-10-02T05:17:48.156Z,10.84
2022-10-02T05:18:48.141Z,10.84
2022-10-02T05:19:48.130Z,10.84
2022-10-02T05:20:48.130Z,10.84
2022-10-02T05:21:48.110Z,10.84
2022-10-02T05:22:48.108Z,10.86
2022-10-02T05:23:48.092Z,10.87
2022-10-02T05:24:48.061Z,10.87
2022-10-02T05:25:48.071Z,10.87
2022-10-02T05:26:48.050Z,10.89
2022-10-02T05:27:48.047Z,10.92
2022-10-02T05:28:48.019Z,10.90
2022-10-02T05:29:48.016Z,10.92
2022-10-02T05:30:48.003Z,10.93
2022-10-02T05:31:48.026Z,10.94
2022-10-02T05:32:47.979Z,10.96
2022-10-02T05:33:48.592Z,10.96
2022-10-02T05:34:47.938Z,10.97
2022-10-02T05:35:47.938Z,10.97
2022-10-02T05:36:47.949Z,10.99
2022-10-02T05:37:47.908Z,10.99
2022-10-02T05:38:47.890Z,10.99
2022-10-02T05:39:47.880Z,11.02
2022-10-02T05:40:47.876Z,11.02
2022-10-02T05:41:47.859Z,11.02
2022-10-02T05:42:47.846Z,11.05
2022-10-02T05:43:47.833Z,11.05
2022-10-02T05:44:47.816Z,11.05
2022-10-02T05:45:47.808Z,11.07
2022-10-02T05:46:47.842Z,11.07
2022-10-02T05:47:47.777Z,11.07
2022-10-02T05:48:47.768Z,11.10
2022-10-02T05:49:47.787Z,11.08
2022-10-02T05:50:47.737Z,11.10
2022-10-02T05:51:47.716Z,11.08
2022-10-02T05:52:47.717Z,11.10
2022-10-02T05:53:47.696Z,11.10
2022-10-02T05:54:47.677Z,11.12
2022-10-02T05:55:47.667Z,11.11
2022-10-02T05:56:47.648Z,11.12
2022-10-02T05:57:47.677Z,11.12
2022-10-02T05:58:47.658Z,11.12
2022-10-02T05:59:47.616Z,11.15
2022-10-02T06:00:47.660Z,11.15
2022-10-02T06:01:47.627Z,11.17
2022-10-02T06:02:47.585Z,11.18
2022-10-02T06:03:47.556Z,11.18
2022-10-02T06:04:47.546Z,11.18
2022-10-02T06:05:47.546Z,11.19
2022-10-02T06:06:47.515Z,11.19
2022-10-02T06:07:47.508Z,11.23
2022-10-02T06:08:47.495Z,11.23
2022-10-02T06:09:47.476Z,11.26
2022-10-02T06:10:47.475Z,11.25
2022-10-02T06:11:47.455Z,11.25
2022-10-02T06:12:47.437Z,11.26
2022-10-02T06:13:47.425Z,11.29
2022-10-02T06:14:50.734Z,11.29
2022-10-02T06:15:47.414Z,11.30
2022-10-02T06:16:47.412Z,11.30
2022-10-02T06:17:47.374Z,11.33
2022-10-02T06:18:47.355Z,11.35
2022-10-02T06:19:47.344Z,11.35
2022-10-02T06:20:47.345Z,11.36
2022-10-02T06:21:47.324Z,11.40
2022-10-02T06:22:47.324Z,11.40
2022-10-02T06:23:47.293Z,11.43
2022-10-02T06:24:47.275Z,11.41
2022-10-02T06:25:47.290Z,11.44
2022-10-02T06:26:47.254Z,11.44
2022-10-02T06:27:47.310Z,11.43
2022-10-02T06:28:47.224Z,11.45
2022-10-02T06:29:47.214Z,11.47
2022-10-02T06:30:47.213Z,11.48
2022-10-02T06:31:47.275Z,11.50
2022-10-02T06:32:47.185Z,11.55
2022-10-02T06:33:47.177Z,11.57
2022-10-02T06:34:48.201Z,11.62
2022-10-02T06:35:47.142Z,11.70
2022-10-02T06:36:47.124Z,11.83
2022-10-02T06:37:47.113Z,11.86
2022-10-02T06:38:47.096Z,11.86
2022-10-02T06:39:47.097Z,11.94
2022-10-02T06:40:47.072Z,11.97
2022-10-02T06:41:47.064Z,12.00
2022-10-02T06:42:47.052Z,12.02
2022-10-02T06:43:47.042Z,12.03
2022-10-02T06:44:47.011Z,12.04
2022-10-02T06:45:47.067Z,12.06
2022-10-02T06:46:51.168Z,12.06
2022-10-02T06:47:46.972Z,12.12
2022-10-02T06:48:46.961Z,12.12
2022-10-02T06:49:46.951Z,12.20
2022-10-02T06:50:46.931Z,12.22
2022-10-02T06:51:46.933Z,12.27
2022-10-02T06:52:46.921Z,12.32
2022-10-02T06:53:46.892Z,12.42
2022-10-02T06:54:46.885Z,12.46
2022-10-02T06:55:46.882Z,12.47
2022-10-02T06:56:46.871Z,12.50
2022-10-02T06:57:46.873Z,12.61
2022-10-02T06:58:46.838Z,12.67
2022-10-02T06:59:46.821Z,12.68
2022-10-02T07:00:46.852Z,12.72
2022-10-02T07:01:46.885Z,12.80
2022-10-02T07:02:46.791Z,12.95
2022-10-02T07:03:46.769Z,13.08
2022-10-02T07:04:46.761Z,13.08
2022-10-02T07:05:46.740Z,13.23
2022-10-02T07:06:46.731Z,13.28
2022-10-02T07:07:46.710Z,13.28
2022-10-02T07:08:46.711Z,13.30
2022-10-02T07:09:46.693Z,13.31
2022-10-02T07:10:46.680Z,13.35
2022-10-02T07:11:46.670Z,13.31
2022-10-02T07:12:46.671Z,13.35
2022-10-02T07:13:46.638Z,13.37
2022-10-02T07:14:46.660Z,13.39
2022-10-02T07:15:46.609Z,13.41
2022-10-02T07:16:46.699Z,13.46
2022-10-02T07:17:46.580Z,13.49
2022-10-02T07:18:46.570Z,13.52
2022-10-02T07:19:46.559Z,13.54
2022-10-02T07:20:46.555Z,13.53
2022-10-02T07:21:46.538Z,13.59
2022-10-02T07:22:46.559Z,13.65
2022-10-02T07:23:46.524Z,13.71
2022-10-02T07:24:46.504Z,13.78
2022-10-02T07:25:46.489Z,13.86
2022-10-02T07:26:46.479Z,13.87
2022-10-02T07:27:46.492Z,14.00
2022-10-02T07:28:46.449Z,14.10
2022-10-02T07:29:46.438Z,14.08
2022-10-02T07:30:46.423Z,14.18
2022-10-02T07:31:46.491Z,14.23
2022-10-02T07:32:46.409Z,14.26
2022-10-02T07:33:46.387Z,14.28
2022-10-02T07:34:46.391Z,14.29
2022-10-02T07:35:46.361Z,14.30
2022-10-02T07:36:46.357Z,14.30
2022-10-02T07:37:46.318Z,14.30
2022-10-02T07:38:46.319Z,14.33
2022-10-02T07:39:46.308Z,14.44
2022-10-02T07:40:46.297Z,14.43
2022-10-02T07:41:46.295Z,14.72
2022-10-02T07:42:46.281Z,14.88
2022-10-02T07:43:46.248Z,14.85
2022-10-02T07:44:46.244Z,15.02
2022-10-02T07:45:46.260Z,15.33
2022-10-02T07:46:46.231Z,15.44
2022-10-02T07:47:46.198Z,15.58
2022-10-02T07:48:46.188Z,15.72
2022-10-02T07:49:46.182Z,15.70
2022-10-02T07:50:46.173Z,15.95
2022-10-02T07:51:46.156Z,16.08
2022-10-02T07:52:46.152Z,16.08
2022-10-02T07:53:46.108Z,16.33
2022-10-02T07:54:46.109Z,16.47
2022-10-02T07:55:46.089Z,16.60
2022-10-02T07:56:46.089Z,16.76
2022-10-02T07:57:46.057Z,16.86
2022-10-02T07:58:46.067Z,16.86
2022-10-02T07:59:46.037Z,16.83
2022-10-02T08:00:46.028Z,16.78
2022-10-02T08:01:46.042Z,16.76
2022-10-02T08:02:46.106Z,16.87
2022-10-02T08:03:45.977Z,16.89
2022-10-02T08:04:45.992Z,16.89
2022-10-02T08:05:45.975Z,16.79
2022-10-02T08:06:45.969Z,16.76
2022-10-02T08:07:45.931Z,16.72
2022-10-02T08:08:45.953Z,16.66
2022-10-02T08:09:45.901Z,16.61
2022-10-02T08:10:45.901Z,16.58
2022-10-02T08:11:49.348Z,16.57
2022-10-02T08:12:45.876Z,16.54
2022-10-02T08:13:45.878Z,16.53
2022-10-02T08:14:46.044Z,16.49
2022-10-02T08:15:45.826Z,16.53
2022-10-02T08:16:45.882Z,16.60
2022-10-02T08:17:45.798Z,16.58
2022-10-02T08:18:45.798Z,16.69
2022-10-02T08:19:45.767Z,16.69
2022-10-02T08:20:45.780Z,16.71
2022-10-02T08:21:45.770Z,16.66
2022-10-02T08:22:45.758Z,16.66
2022-10-02T08:23:45.734Z,16.64
2022-10-02T08:24:45.697Z,16.66
2022-10-02T08:25:45.688Z,16.68
2022-10-02T08:26:45.696Z,16.66
2022-10-02T08:27:45.774Z,16.75
2022-10-02T08:28:45.656Z,16.76
2022-10-02T08:29:45.635Z,16.76
2022-10-02T08:30:45.627Z,16.76
2022-10-02T08:31:45.695Z,16.75
2022-10-02T08:32:45.607Z,16.72
2022-10-02T08:33:45.588Z,16.72
2022-10-02T08:34:45.582Z,16.72
2022-10-02T08:35:45.557Z,16.72
2022-10-02T08:36:45.588Z,16.74
2022-10-02T08:37:45.533Z,16.66
2022-10-02T08:38:45.535Z,16.68
2022-10-02T08:39:45.497Z,16.69
2022-10-02T08:40:45.506Z,16.71
2022-10-02T08:41:45.486Z,16.83
2022-10-02T08:42:45.494Z,17.09
2022-10-02T08:43:45.457Z,17.11
2022-10-02T08:44:45.448Z,17.41
2022-10-02T08:45:45.447Z,17.41
2022-10-02T08:46:45.427Z,17.63
2022-10-02T08:47:45.407Z,17.70
2022-10-02T08:48:45.392Z,17.90
2022-10-02T08:49:45.386Z,18.13
2022-10-02T08:50:45.371Z,18.33
2022-10-02T08:51:45.357Z,18.43
2022-10-02T08:52:45.358Z,18.44
2022-10-02T08:53:45.326Z,18.31
2022-10-02T08:54:45.325Z,18.28
2022-10-02T08:55:45.295Z,18.25
2022-10-02T08:56:45.307Z,18.18
2022-10-02T08:57:45.283Z,18.40
2022-10-02T08:58:45.267Z,18.53
2022-10-02T08:59:45.247Z,18.78
2022-10-02T09:00:45.269Z,19.07
2022-10-02T09:01:45.291Z,19.31
2022-10-02T09:02:45.218Z,19.40
2022-10-02T09:03:45.207Z,19.62
2022-10-02T09:04:45.185Z,19.81
2022-10-02T09:05:45.166Z,19.88
2022-10-02T09:06:45.209Z,20.06
2022-10-02T09:07:45.165Z,20.19
2022-10-02T09:08:45.137Z,20.39
2022-10-02T09:09:45.156Z,20.63
2022-10-02T09:10:45.126Z,20.63
2022-10-02T09:11:45.102Z,20.75
2022-10-02T09:12:45.076Z,20.67
2022-10-02T09:13:45.067Z,20.56
2022-10-02T09:14:45.058Z,20.58
2022-10-02T09:15:45.041Z,20.56
2022-10-02T09:16:45.054Z,20.28
2022-10-02T09:17:45.016Z,20.28
2022-10-02T09:18:45.005Z,20.32
2022-10-02T09:19:44.986Z,20.24
2022-10-02T09:20:45.014Z,20.24
2022-10-02T09:21:44.966Z,20.22
2022-10-02T09:22:44.947Z,20.43
2022-10-02T09:23:44.933Z,20.65
2022-10-02T09:24:44.916Z,20.65
2022-10-02T09:25:44.904Z,20.92
2022-10-02T09:26:44.909Z,21.22
2022-10-02T09:27:44.894Z,21.33
2022-10-02T09:28:44.947Z,21.32
2022-10-02T09:29:44.880Z,21.37
2022-10-02T09:30:44.835Z,21.37
2022-10-02T09:31:44.861Z,21.43
2022-10-02T09:32:44.825Z,21.55
2022-10-02T09:33:44.804Z,21.98
2022-10-02T09:34:44.805Z,21.95
2022-10-02T09:35:44.786Z,22.11
2022-10-02T09:36:44.776Z,21.98
2022-10-02T09:37:44.777Z,21.98
2022-10-02T09:38:44.747Z,21.79
2022-10-02T09:39:44.727Z,21.77
2022-10-02T09:40:44.718Z,21.89
2022-10-02T09:41:44.725Z,21.80
2022-10-02T09:42:44.696Z,21.43
2022-10-02T09:43:44.675Z,21.24
2022-10-02T09:44:44.667Z,21.05
2022-10-02T09:45:44.683Z,20.85
2022-10-02T09:46:44.630Z,20.70
2022-10-02T09:47:44.678Z,20.56
2022-10-02T09:48:44.606Z,20.59
2022-10-02T09:49:44.587Z,20.59
2022-10-02T09:50:44.587Z,20.59
2022-10-02T09:51:44.566Z,20.74
2022-10-02T09:52:44.574Z,20.84
2022-10-02T09:53:44.549Z,20.77
2022-10-02T09:54:44.554Z,20.75
2022-10-02T09:55:44.515Z,20.87
2022-10-02T09:56:44.506Z,21.02
2022-10-02T09:57:44.506Z,21.21
2022-10-02T09:58:44.467Z,21.39
2022-10-02T09:59:44.486Z,21.52
2022-10-02T10:00:44.501Z,21.52
2022-10-02T10:01:44.436Z,21.62
2022-10-02T10:02:44.506Z,21.91
2022-10-02T10:03:44.536Z,21.89
2022-10-02T10:05:04.522Z,22.00
2022-10-02T10:05:45.376Z,22.29
2022-10-02T10:06:44.376Z,22.36
2022-10-02T10:07:44.374Z,22.38
2022-10-02T10:08:44.363Z,22.59
2022-10-02T10:09:44.461Z,22.59
2022-10-02T10:10:44.326Z,22.80
2022-10-02T10:11:44.317Z,22.91
2022-10-02T10:12:44.307Z,22.91
2022-10-02T10:13:44.296Z,23.18
2022-10-02T10:14:44.267Z,23.17
2022-10-02T10:15:44.248Z,23.31
2022-10-02T10:16:44.321Z,23.39
2022-10-02T10:17:44.246Z,23.54
2022-10-02T10:18:44.215Z,23.65
2022-10-02T10:19:44.205Z,23.66
2022-10-02T10:20:44.367Z,23.86
2022-10-02T10:21:44.166Z,23.87
2022-10-02T10:22:44.188Z,24.10
2022-10-02T10:23:44.148Z,24.08
2022-10-02T10:24:44.141Z,24.21
2022-10-02T10:25:44.117Z,24.33
2022-10-02T10:26:44.116Z,24.42
2022-10-02T10:27:44.134Z,24.53
2022-10-02T10:28:44.082Z,24.54
2022-10-02T10:29:44.066Z,24.61
2022-10-02T10:30:44.180Z,24.68
2022-10-02T10:31:44.071Z,24.68
2022-10-02T10:32:44.038Z,24.66
2022-10-02T10:33:44.016Z,24.63
2022-10-02T10:34:43.997Z,24.66
2022-10-02T10:35:43.994Z,24.65
2022-10-02T10:36:46.742Z,24.65
2022-10-02T10:37:43.966Z,24.55
2022-10-02T10:38:43.959Z,24.55
2022-10-02T10:39:43.973Z,24.55
2022-10-02T10:40:43.930Z,24.33
2022-10-02T10:41:43.916Z,24.17
2022-10-02T10:43:03.387Z,24.10
2022-10-02T10:43:44.877Z,23.99
2022-10-02T10:44:43.886Z,23.95
2022-10-02T10:45:43.931Z,23.95
2022-10-02T10:46:43.847Z,23.80
2022-10-02T10:47:43.856Z,23.63
2022-10-02T10:48:48.503Z,23.73
2022-10-02T10:49:44.855Z,23.73
2022-10-02T10:50:43.800Z,23.71
2022-10-02T10:51:43.777Z,23.61
2022-10-02T10:52:43.797Z,23.59
2022-10-02T10:53:43.758Z,23.41
2022-10-02T10:54:43.767Z,23.32
2022-10-02T10:55:43.726Z,23.32
2022-10-02T10:56:43.727Z,23.28
2022-10-02T10:57:43.706Z,22.94
2022-10-02T10:58:43.696Z,22.94
2022-10-02T10:59:43.677Z,22.65
2022-10-02T11:00:43.760Z,22.66
2022-10-02T11:01:43.672Z,22.51
2022-10-02T11:02:43.698Z,22.39
2022-10-02T11:03:43.636Z,22.22
2022-10-02T11:04:43.622Z,22.13
2022-10-02T11:05:43.601Z,22.13
2022-10-02T11:06:46.070Z,22.14
2022-10-02T11:07:43.592Z,22.13
2022-10-02T11:08:43.580Z,22.17
2022-10-02T11:09:43.557Z,22.18
2022-10-02T11:10:43.542Z,22.18
2022-10-02T11:11:43.531Z,22.23
2022-10-02T11:12:43.532Z,22.22
2022-10-02T11:13:43.521Z,22.23
2022-10-02T11:14:43.490Z,22.20
2022-10-02T11:15:43.490Z,22.22
2022-10-02T11:16:43.499Z,22.23
2022-10-02T11:17:43.481Z,22.17
2022-10-02T11:18:43.441Z,22.07
2022-10-02T11:19:43.431Z,21.95
2022-10-02T11:20:43.410Z,21.83
2022-10-02T11:21:43.400Z,21.73
2022-10-02T11:22:43.512Z,21.72
2022-10-02T11:23:43.484Z,21.70
2022-10-02T11:24:43.360Z,21.70
2022-10-02T11:25:43.351Z,21.73
2022-10-02T11:26:43.330Z,21.75
2022-10-02T11:27:43.350Z,21.77
2022-10-02T11:28:43.310Z,21.79
2022-10-02T11:29:43.312Z,21.79
2022-10-02T11:30:43.980Z,21.82
2022-10-02T11:31:43.335Z,21.85
2022-10-02T11:32:43.278Z,21.85
2022-10-02T11:33:43.251Z,21.89
2022-10-02T11:34:43.221Z,21.92
2022-10-02T11:35:43.221Z,21.92
2022-10-02T11:36:43.195Z,21.91
2022-10-02T11:37:43.210Z,21.95
2022-10-02T11:38:43.173Z,21.96
2022-10-02T11:39:43.174Z,21.98
2022-10-02T11:40:43.150Z,21.99
2022-10-02T11:41:43.152Z,22.00
2022-10-02T11:42:43.142Z,21.98
2022-10-02T11:43:44.208Z,21.93
2022-10-02T11:44:43.110Z,21.96
2022-10-02T11:45:43.141Z,21.96
2022-10-02T11:46:43.071Z,21.92
2022-10-02T11:47:43.083Z,21.95
2022-10-02T11:48:43.062Z,21.92
2022-10-02T11:49:43.174Z,21.88
2022-10-02T11:50:43.019Z,21.82
2022-10-02T11:51:43.037Z,21.85
2022-10-02T11:52:47.979Z,21.95
2022-10-02T11:53:43.992Z,22.04
2022-10-02T11:54:42.961Z,22.13
2022-10-02T11:55:42.969Z,22.22
2022-10-02T11:56:42.944Z,22.33
2022-10-02T11:57:42.959Z,22.44
2022-10-02T11:58:42.920Z,22.51
2022-10-02T11:59:42.957Z,22.59
2022-10-02T12:00:42.891Z,22.62
2022-10-02T12:01:42.881Z,22.59
2022-10-02T12:02:42.944Z,22.53
2022-10-02T12:03:42.861Z,22.50
2022-10-02T12:04:42.851Z,22.43
2022-10-02T12:05:42.832Z,22.41
2022-10-02T12:06:42.812Z,22.36
2022-10-02T12:07:42.841Z,22.35
2022-10-02T12:08:42.797Z,22.30
2022-10-02T12:09:42.825Z,22.26
2022-10-02T12:10:42.783Z,22.22
2022-10-02T12:11:42.754Z,22.17
2022-10-02T12:12:42.742Z,22.14
2022-10-02T12:13:42.724Z,22.11
2022-10-02T12:14:42.702Z,22.06
2022-10-02T12:15:42.714Z,22.02
2022-10-02T12:16:42.719Z,21.95
2022-10-02T12:17:42.683Z,21.89
2022-10-02T12:18:42.666Z,21.83
2022-10-02T12:19:42.671Z,21.77
2022-10-02T12:20:42.632Z,21.72
2022-10-02T12:21:42.622Z,21.69
2022-10-02T12:22:42.622Z,21.66
2022-10-02T12:23:42.596Z,21.62
2022-10-02T12:24:42.575Z,21.58
2022-10-02T12:25:42.572Z,21.58
2022-10-02T12:26:42.553Z,21.55
2022-10-02T12:27:42.563Z,21.51
2022-10-02T12:28:42.532Z,21.48
2022-10-02T12:29:42.583Z,21.45
2022-10-02T12:30:42.502Z,21.39
2022-10-02T12:31:42.525Z,21.36
2022-10-02T12:32:42.493Z,21.30
2022-10-02T12:33:42.463Z,21.22
2022-10-02T12:34:42.453Z,21.18
2022-10-02T12:35:42.452Z,21.15
2022-10-02T12:36:42.423Z,21.11
2022-10-02T12:37:42.423Z,21.07
2022-10-02T12:38:42.393Z,21.05
2022-10-02T12:39:42.430Z,21.03
2022-10-02T12:40:42.372Z,21.00
2022-10-02T12:41:42.353Z,21.00
2022-10-02T12:42:42.352Z,20.97
2022-10-02T12:43:42.344Z,20.97
2022-10-02T12:44:42.321Z,20.93
2022-10-02T12:45:42.328Z,20.92
2022-10-02T12:46:42.292Z,20.90
2022-10-02T12:47:42.293Z,20.88
2022-10-02T12:48:42.263Z,20.85
2022-10-02T12:49:42.261Z,20.84
2022-10-02T12:50:42.233Z,20.81
2022-10-02T12:51:42.232Z,20.81
2022-10-02T12:52:42.223Z,20.78